Lilly Bolten — A8TJ5 — position and weather

sailwx.info

Track history (hours):
 
Tides and Currents Weather Stations Pressure Air Temp Water Temp Dewpoint Dewpoint Depression Visibility Wind Speed Wind Dir Waves Ship Positions

Lilly Bolten

Last reported at 2017-Dec-08 18:27 UTC. Time now 2017-Dec-13 14:45 UTC.
Position N 35°47' W 000°37'.

Length 180 m; draft 10.1 m.

Type: Cargo ship. MMSI: 636091829.

Date/timePositionNaut miles runAvg speedWind from/ knotsBaromVisibWave heightAir tempDewpointWater temp
2017-Dec-08 18:27N 35°47' W 000°37'3 4.3
2017-Dec-08 17:45N 35°49' W 000°40'  
2017-Dec-04 10:30N 36°40' W 024°03'510.9
2017-Dec-04 10:01N 36°40' W 024°10'511.0
2017-Dec-04 09:30N 36°40' W 024°17'510.9
2017-Dec-04 09:00N 36°40' W 024°24'611.0
2017-Dec-04 08:30N 36°40' W 024°30'610.9
2017-Dec-04 08:00N 36°39' W 024°37'510.6
2017-Dec-04 07:30N 36°39' W 024°44'510.6
2017-Dec-04 07:00N 36°39' W 024°50'510.6
2017-Dec-04 06:31N 36°39' W 024°57'510.7
2017-Dec-04 06:00N 36°39' W 025°04'510.7
2017-Dec-04 05:30N 36°40' W 025°10'510.6
2017-Dec-04 05:01N 36°40' W 025°17'510.9
2017-Dec-04 04:30N 36°41' W 025°24'511.0
2017-Dec-04 04:00N 36°42' W 025°31'510.8
2017-Dec-04 03:30N 36°42' W 025°37'511.0
2017-Dec-04 03:00N 36°43' W 025°44'510.9
2017-Dec-04 02:30N 36°44' W 025°51'611.1
2017-Dec-04 02:00N 36°45' W 025°57'510.9
2017-Dec-04 01:30N 36°47' W 026°04'611.2
2017-Dec-04 01:00N 36°48' W 026°11'511.1
2017-Dec-04 00:30N 36°49' W 026°18'611.0
2017-Dec-03 23:57N 36°51' W 026°25'511.1
2017-Dec-03 23:30N 36°52' W 026°31'611.3
2017-Dec-03 23:00N 36°53' W 026°38'1511.3
2017-Dec-03 21:41N 36°57' W 026°56'211.4
2017-Dec-03 21:29N 36°58' W 026°59'5911.1
2017-Dec-03 16:12N 37°12' W 028°10'211.2
2017-Dec-03 15:59N 37°12' W 028°13'811.2
2017-Dec-03 15:17N 37°14' W 028°22'310.9
2017-Dec-03 15:00N 37°15' W 028°26'511.2
2017-Dec-03 14:30N 37°16' W 028°33'611.2
2017-Dec-03 14:01N 37°17' W 028°40'611.4
2017-Dec-03 13:30N 37°19' W 028°47'611.5
2017-Dec-03 13:00N 37°20' W 028°54'611.2
2017-Dec-03 12:30N 37°21' W 029°01'611.3
2017-Dec-03 12:00N 37°23' W 029°08'611.3
2017-Dec-03 11:30N 37°24' W 029°14'510.7
2017-Dec-03 11:00N 37°26' W 029°21'611.3
2017-Dec-03 10:30N 37°27' W 029°28'611.0
2017-Dec-03 10:00N 37°28' W 029°35'510.7
2017-Dec-03 09:30N 37°30' W 029°41'711.2
2017-Dec-03 08:54N 37°31' W 029°50'1211.3
2017-Dec-03 07:50N 37°34' W 030°04'411.0
2017-Dec-03 07:30N 37°34' W 030°09'  
Track history (hours):
 
Tides and Currents Weather Stations Pressure Air Temp Water Temp Dewpoint Dewpoint Depression Visibility Wind Speed Wind Dir Waves Ship Positions

Lilly Bolten

Last reported at 2017-Dec-08 18:27 UTC. Time now 2017-Dec-13 14:45 UTC.
Position N 35°47' W 000°37'.

Length 180 m; draft 10.1 m.

Type: Cargo ship. MMSI: 636091829.

Date/timePositionNaut miles runAvg speedWind from/ knotsBaromVisibWave heightAir tempDewpointWater temp
2017-Dec-08 18:27N 35°47' W 000°37'3 4.3
2017-Dec-08 17:45N 35°49' W 000°40'  
2017-Dec-04 10:30N 36°40' W 024°03'510.9
2017-Dec-04 10:01N 36°40' W 024°10'511.0
2017-Dec-04 09:30N 36°40' W 024°17'510.9
2017-Dec-04 09:00N 36°40' W 024°24'611.0
2017-Dec-04 08:30N 36°40' W 024°30'610.9
2017-Dec-04 08:00N 36°39' W 024°37'510.6
2017-Dec-04 07:30N 36°39' W 024°44'510.6
2017-Dec-04 07:00N 36°39' W 024°50'510.6
2017-Dec-04 06:31N 36°39' W 024°57'510.7
2017-Dec-04 06:00N 36°39' W 025°04'510.7
2017-Dec-04 05:30N 36°40' W 025°10'510.6
2017-Dec-04 05:01N 36°40' W 025°17'510.9
2017-Dec-04 04:30N 36°41' W 025°24'511.0
2017-Dec-04 04:00N 36°42' W 025°31'510.8
2017-Dec-04 03:30N 36°42' W 025°37'511.0
2017-Dec-04 03:00N 36°43' W 025°44'510.9
2017-Dec-04 02:30N 36°44' W 025°51'611.1
2017-Dec-04 02:00N 36°45' W 025°57'510.9
2017-Dec-04 01:30N 36°47' W 026°04'611.2
2017-Dec-04 01:00N 36°48' W 026°11'511.1
2017-Dec-04 00:30N 36°49' W 026°18'611.0
2017-Dec-03 23:57N 36°51' W 026°25'511.1
2017-Dec-03 23:30N 36°52' W 026°31'611.3
2017-Dec-03 23:00N 36°53' W 026°38'1511.3
2017-Dec-03 21:41N 36°57' W 026°56'211.4
2017-Dec-03 21:29N 36°58' W 026°59'5911.1
2017-Dec-03 16:12N 37°12' W 028°10'211.2
2017-Dec-03 15:59N 37°12' W 028°13'811.2
2017-Dec-03 15:17N 37°14' W 028°22'310.9
2017-Dec-03 15:00N 37°15' W 028°26'511.2
2017-Dec-03 14:30N 37°16' W 028°33'611.2
2017-Dec-03 14:01N 37°17' W 028°40'611.4
2017-Dec-03 13:30N 37°19' W 028°47'611.5
2017-Dec-03 13:00N 37°20' W 028°54'611.2
2017-Dec-03 12:30N 37°21' W 029°01'611.3
2017-Dec-03 12:00N 37°23' W 029°08'611.3
2017-Dec-03 11:30N 37°24' W 029°14'510.7
2017-Dec-03 11:00N 37°26' W 029°21'611.3
2017-Dec-03 10:30N 37°27' W 029°28'611.0
2017-Dec-03 10:00N 37°28' W 029°35'510.7
2017-Dec-03 09:30N 37°30' W 029°41'711.2
2017-Dec-03 08:54N 37°31' W 029°50'1211.3
2017-Dec-03 07:50N 37°34' W 030°04'411.0
2017-Dec-03 07:30N 37°34' W 030°09'  

Dump ship's entire track history